createdAt,value
2024-02-09T00:00:50.966Z,45.05
2024-02-09T00:01:54.159Z,44.78
2024-02-09T00:02:56.328Z,42.17
2024-02-09T00:03:58.315Z,41.22
2024-02-09T00:05:07.035Z,39.33
2024-02-09T00:06:09.099Z,44.53
2024-02-09T00:07:11.115Z,44.85
2024-02-09T00:08:14.956Z,42.25
2024-02-09T00:09:17.012Z,38.03
2024-02-09T00:10:20.146Z,44.15
2024-02-09T00:11:23.075Z,45.75
2024-02-09T00:12:25.422Z,45.65
2024-02-09T00:13:31.713Z,46.22
2024-02-09T00:14:33.741Z,45.92
2024-02-09T00:15:36.060Z,44.33
2024-02-09T00:16:38.139Z,45.05
2024-02-09T00:17:40.040Z,43.92
2024-02-09T00:18:42.256Z,47.88
2024-02-09T00:19:44.689Z,46.80
2024-02-09T00:20:48.428Z,46.22
2024-02-09T00:21:50.341Z,45.20
2024-02-09T00:22:52.275Z,47.60
2024-02-09T00:23:55.713Z,34.10
2024-02-09T00:24:57.613Z,44.42
2024-02-09T00:26:01.886Z,40.45
2024-02-09T00:27:05.998Z,43.88
2024-02-09T00:28:12.956Z,46.67
2024-02-09T00:29:15.387Z,41.95
2024-02-09T00:30:17.343Z,43.47
2024-02-09T00:31:22.497Z,35.65
2024-02-09T00:32:24.745Z,42.30
2024-02-09T00:33:27.126Z,39.78
2024-02-09T00:34:30.183Z,39.90
2024-02-09T00:35:34.748Z,36.30
2024-02-09T00:36:37.372Z,35.53
2024-02-09T00:37:39.824Z,39.45
2024-02-09T00:38:42.547Z,32.55
2024-02-09T00:39:44.510Z,32.03
2024-02-09T00:40:46.479Z,36.93
2024-02-09T00:41:49.151Z,35.33
2024-02-09T00:42:54.211Z,33.40
2024-02-09T00:43:56.584Z,33.20
2024-02-09T00:44:58.513Z,37.60
2024-02-09T00:46:03.180Z,29.83
2024-02-09T00:47:05.455Z,29.73
2024-02-09T00:48:08.598Z,33.88
2024-02-09T00:49:11.972Z,32.65
2024-02-09T00:50:19.019Z,33.38
2024-02-09T00:51:20.993Z,33.83
2024-02-09T00:52:22.975Z,35.47
2024-02-09T00:53:25.946Z,32.42
2024-02-09T00:54:27.874Z,29.33
2024-02-09T00:55:30.978Z,29.35
2024-02-09T00:56:33.847Z,31.65
2024-02-09T00:57:35.819Z,36.25
2024-02-09T00:58:37.854Z,36.15
2024-02-09T00:59:44.442Z,31.35
2024-02-09T01:00:46.420Z,32.25
2024-02-09T01:02:01.503Z,33.10
2024-02-09T01:03:08.789Z,24.50
2024-02-09T01:04:14.164Z,28.97
2024-02-09T01:05:16.154Z,29.40
2024-02-09T01:06:22.629Z,34.95
2024-02-09T01:07:24.588Z,30.40
2024-02-09T01:08:30.290Z,29.00
2024-02-09T01:09:35.864Z,28.08
2024-02-09T01:10:37.943Z,28.52
2024-02-09T01:11:40.021Z,30.58
2024-02-09T01:13:00.438Z,26.08
2024-02-09T01:14:21.403Z,23.77
2024-02-09T01:15:42.964Z,27.73
2024-02-09T01:17:03.421Z,25.13
2024-02-09T01:18:24.006Z,29.48
2024-02-09T01:19:44.809Z,30.00
2024-02-09T01:21:05.495Z,28.05
2024-02-09T01:22:26.039Z,35.30
2024-02-09T01:23:46.695Z,29.95
2024-02-09T01:25:07.382Z,33.30
2024-02-09T01:26:28.145Z,23.23
2024-02-09T01:27:48.591Z,30.35
2024-02-09T01:29:09.186Z,30.17
2024-02-09T01:30:29.899Z,22.35
2024-02-09T01:31:50.222Z,23.90
2024-02-09T01:33:11.214Z,29.07
2024-02-09T01:34:31.822Z,25.17
2024-02-09T01:35:52.224Z,28.25
2024-02-09T01:37:12.741Z,21.00
2024-02-09T01:38:33.325Z,28.38
2024-02-09T01:39:53.575Z,24.50
2024-02-09T01:41:14.348Z,18.27
2024-02-09T01:42:34.697Z,23.75
2024-02-09T01:43:55.077Z,23.80
2024-02-09T01:45:15.566Z,23.67
2024-02-09T01:46:36.358Z,19.60
2024-02-09T01:47:56.895Z,23.20
2024-02-09T01:49:17.905Z,18.73
2024-02-09T01:50:38.873Z,26.00
2024-02-09T01:52:00.123Z,19.95
2024-02-09T01:53:20.654Z,26.20
2024-02-09T01:54:41.228Z,17.95
2024-02-09T01:56:02.019Z,27.05
2024-02-09T01:57:24.192Z,27.47
2024-02-09T01:58:45.630Z,20.88
2024-02-09T02:00:10.461Z,23.95
2024-02-09T02:01:35.587Z,20.10
2024-02-09T02:02:58.233Z,23.10
2024-02-09T02:04:19.264Z,18.25
2024-02-09T02:05:40.292Z,20.17
2024-02-09T02:07:00.985Z,10.82
2024-02-09T02:08:21.595Z,16.40
2024-02-09T02:09:42.372Z,15.82
2024-02-09T02:11:02.869Z,14.70
2024-02-09T02:12:24.020Z,15.93
2024-02-09T02:13:44.640Z,18.92
2024-02-09T02:15:05.221Z,16.52
2024-02-09T02:16:25.647Z,22.80
2024-02-09T02:17:46.480Z,21.60
2024-02-09T02:19:08.679Z,21.35
2024-02-09T02:20:29.405Z,18.25
2024-02-09T02:21:53.935Z,18.45
2024-02-09T02:23:26.554Z,18.05
2024-02-09T02:24:50.119Z,17.20
2024-02-09T02:26:10.737Z,18.98
2024-02-09T02:27:32.435Z,16.75
2024-02-09T02:28:53.121Z,18.50
2024-02-09T02:30:13.563Z,22.95
2024-02-09T02:31:34.430Z,20.27
2024-02-09T02:32:55.250Z,27.42
2024-02-09T02:34:15.806Z,15.65
2024-02-09T02:35:36.335Z,20.85
2024-02-09T02:36:57.085Z,20.27
2024-02-09T02:38:17.668Z,18.75
2024-02-09T02:39:38.204Z,22.92
2024-02-09T02:40:58.988Z,14.07
2024-02-09T02:42:00.909Z,17.58
2024-02-09T02:43:02.861Z,20.80
2024-02-09T02:44:05.594Z,28.83
2024-02-09T02:45:13.924Z,23.38
2024-02-09T02:46:16.505Z,13.38
2024-02-09T02:47:19.155Z,20.45
2024-02-09T02:48:39.807Z,19.63
2024-02-09T02:50:00.674Z,15.93
2024-02-09T02:51:21.393Z,19.05
2024-02-09T02:52:41.924Z,18.45
2024-02-09T02:54:02.393Z,19.08
2024-02-09T02:55:22.927Z,20.20
2024-02-09T02:56:43.367Z,20.17
2024-02-09T02:58:03.913Z,19.52
2024-02-09T02:59:24.213Z,18.27
2024-02-09T03:00:45.114Z,18.40
2024-02-09T03:02:05.708Z,22.40
2024-02-09T03:03:26.143Z,18.48
2024-02-09T03:04:29.021Z,13.95
2024-02-09T03:05:31.223Z,18.20
2024-02-09T03:06:47.457Z,24.60
2024-02-09T03:08:43.330Z,12.20
2024-02-09T03:09:19.943Z,15.80
2024-02-09T03:10:22.245Z,19.63
2024-02-09T03:11:25.181Z,19.70
2024-02-09T03:12:28.909Z,19.02
2024-02-09T03:13:30.906Z,17.67
2024-02-09T03:14:33.121Z,21.30
2024-02-09T03:15:36.034Z,23.45
2024-02-09T03:16:38.018Z,20.77
2024-02-09T03:17:41.077Z,20.58
2024-02-09T03:18:45.977Z,18.98
2024-02-09T03:19:48.213Z,20.52
2024-02-09T03:20:50.238Z,21.13
2024-02-09T03:21:55.479Z,18.90
2024-02-09T03:22:57.614Z,20.08
2024-02-09T03:23:59.652Z,23.07
2024-02-09T03:25:05.780Z,23.40
2024-02-09T03:26:07.740Z,17.83
2024-02-09T03:27:09.724Z,17.60
2024-02-09T03:28:11.659Z,22.05
2024-02-09T03:29:13.624Z,22.08
2024-02-09T03:30:18.060Z,21.83
2024-02-09T03:31:20.757Z,17.43
2024-02-09T03:32:22.897Z,18.10
2024-02-09T03:33:24.895Z,19.20
2024-02-09T03:34:27.510Z,20.67
2024-02-09T03:35:33.253Z,21.45
2024-02-09T03:36:35.860Z,26.70
2024-02-09T03:37:37.886Z,20.70
2024-02-09T03:38:40.283Z,23.27
2024-02-09T03:39:44.109Z,18.63
2024-02-09T03:40:46.309Z,27.67
2024-02-09T03:41:48.343Z,14.68
2024-02-09T03:42:50.597Z,22.15
2024-02-09T03:43:52.524Z,21.65
2024-02-09T03:44:57.811Z,14.70
2024-02-09T03:46:01.667Z,19.67
2024-02-09T03:47:03.830Z,20.77
2024-02-09T03:48:06.266Z,17.10
2024-02-09T03:49:13.056Z,17.30
2024-02-09T03:50:16.409Z,25.40
2024-02-09T03:51:18.326Z,16.40
2024-02-09T03:52:21.702Z,23.23
2024-02-09T03:53:23.635Z,22.05
2024-02-09T03:54:25.537Z,17.42
2024-02-09T03:55:27.448Z,20.30
2024-02-09T03:56:29.459Z,10.57
2024-02-09T03:57:32.968Z,18.13
2024-02-09T03:58:35.079Z,19.88
2024-02-09T03:59:37.953Z,18.50
2024-02-09T04:00:39.940Z,18.25
2024-02-09T04:01:42.697Z,22.10
2024-02-09T04:02:47.608Z,17.52
2024-02-09T04:03:50.012Z,15.70
2024-02-09T04:04:52.088Z,18.60
2024-02-09T04:05:56.255Z,18.35
2024-02-09T04:06:59.826Z,18.83
2024-02-09T04:08:04.381Z,16.13
2024-02-09T04:09:30.686Z,16.40
2024-02-09T04:10:39.699Z,16.83
2024-02-09T04:11:45.935Z,14.75
2024-02-09T04:12:47.931Z,17.98
2024-02-09T04:13:52.939Z,15.45
2024-02-09T04:14:54.833Z,11.98
2024-02-09T04:15:58.664Z,16.60
2024-02-09T04:17:00.650Z,14.88
2024-02-09T04:18:04.801Z,20.80
2024-02-09T04:19:08.832Z,9.40
2024-02-09T04:20:12.512Z,13.23
2024-02-09T04:21:18.251Z,19.48
2024-02-09T04:22:20.318Z,19.23
2024-02-09T04:23:22.282Z,18.58
2024-02-09T04:24:25.080Z,14.50
2024-02-09T04:25:27.177Z,15.88
2024-02-09T04:26:29.101Z,15.75
2024-02-09T04:27:31.038Z,13.00
2024-02-09T04:28:32.933Z,11.98
2024-02-09T04:29:34.871Z,11.10
2024-02-09T04:30:36.875Z,16.52
2024-02-09T04:31:42.868Z,21.15
2024-02-09T04:32:44.981Z,8.93
2024-02-09T04:33:46.964Z,7.13
2024-02-09T04:34:49.021Z,14.85
2024-02-09T04:35:50.999Z,15.38
2024-02-09T04:36:54.523Z,15.48
2024-02-09T04:37:56.422Z,11.98
2024-02-09T04:38:58.401Z,16.13
2024-02-09T04:40:00.446Z,15.70
2024-02-09T04:41:02.407Z,10.43
2024-02-09T04:42:04.663Z,10.90
2024-02-09T04:43:07.371Z,11.13
2024-02-09T04:44:09.571Z,10.35
2024-02-09T04:45:11.649Z,12.15
2024-02-09T04:46:24.072Z,11.55
2024-02-09T04:47:26.292Z,13.82
2024-02-09T04:48:28.502Z,9.27
2024-02-09T04:49:30.512Z,7.47
2024-02-09T04:50:32.454Z,11.48
2024-02-09T04:51:38.809Z,10.98
2024-02-09T04:52:40.901Z,8.27
2024-02-09T04:53:42.959Z,10.07
2024-02-09T04:54:44.912Z,9.57
2024-02-09T04:55:49.371Z,10.80
2024-02-09T04:56:51.491Z,10.77
2024-02-09T04:57:53.516Z,7.53
2024-02-09T04:58:55.601Z,15.57
2024-02-09T04:59:57.576Z,8.32
2024-02-09T05:01:01.354Z,9.77
2024-02-09T05:02:03.513Z,9.18
2024-02-09T05:03:05.806Z,13.80
2024-02-09T05:04:11.246Z,13.40
2024-02-09T05:05:13.748Z,12.13
2024-02-09T05:06:15.782Z,8.85
2024-02-09T05:07:17.847Z,7.70
2024-02-09T05:08:19.778Z,9.65
2024-02-09T05:09:25.102Z,12.20
2024-02-09T05:10:27.280Z,12.98
2024-02-09T05:11:30.884Z,6.75
2024-02-09T05:12:34.286Z,11.20
2024-02-09T05:13:38.878Z,10.05
2024-02-09T05:14:40.923Z,11.73
2024-02-09T05:15:42.847Z,9.20
2024-02-09T05:16:45.008Z,11.43
2024-02-09T05:17:47.207Z,14.80
2024-02-09T05:18:49.407Z,12.20
2024-02-09T05:19:54.403Z,10.63
2024-02-09T05:20:59.014Z,13.57
2024-02-09T05:22:01.034Z,11.70
2024-02-09T05:23:04.531Z,11.45
2024-02-09T05:24:07.252Z,12.73
2024-02-09T05:25:09.338Z,10.02
2024-02-09T05:26:12.563Z,12.57
2024-02-09T05:27:14.547Z,14.55
2024-02-09T05:28:16.701Z,11.88
2024-02-09T05:29:19.049Z,15.00
2024-02-09T05:30:20.995Z,12.88
2024-02-09T05:31:29.873Z,14.25
2024-02-09T05:32:33.693Z,15.50
2024-02-09T05:33:38.535Z,10.73
2024-02-09T05:34:47.545Z,6.85
2024-02-09T05:35:52.944Z,8.48
2024-02-09T05:36:55.605Z,13.32
2024-02-09T05:37:57.617Z,12.88
2024-02-09T05:39:00.631Z,14.23
2024-02-09T05:40:03.182Z,9.70
2024-02-09T05:41:05.187Z,13.65
2024-02-09T05:42:07.341Z,13.68
2024-02-09T05:43:09.424Z,20.33
2024-02-09T05:44:13.726Z,13.57
2024-02-09T05:45:15.826Z,9.38
2024-02-09T05:46:18.003Z,14.23
2024-02-09T05:47:20.213Z,12.93
2024-02-09T05:48:22.845Z,12.40
2024-02-09T05:49:24.904Z,13.98
2024-02-09T05:50:33.437Z,9.13
2024-02-09T05:51:41.881Z,14.73
2024-02-09T05:52:44.030Z,13.60
2024-02-09T05:53:48.317Z,11.37
2024-02-09T05:54:50.410Z,15.07
2024-02-09T05:55:52.943Z,21.40
2024-02-09T05:56:54.886Z,10.82
2024-02-09T05:57:56.936Z,10.18
2024-02-09T05:59:00.912Z,16.52
2024-02-09T06:00:03.241Z,12.05
2024-02-09T06:01:06.414Z,9.52
2024-02-09T06:02:08.464Z,12.48
2024-02-09T06:03:11.252Z,13.27
2024-02-09T06:04:15.646Z,9.23
2024-02-09T06:05:18.340Z,12.85
2024-02-09T06:06:22.885Z,12.32
2024-02-09T06:07:29.537Z,11.25
2024-02-09T06:08:31.652Z,10.50
2024-02-09T06:09:37.456Z,10.55
2024-02-09T06:10:39.993Z,10.48
2024-02-09T06:11:42.060Z,12.10
2024-02-09T06:12:46.909Z,11.80
2024-02-09T06:13:49.707Z,6.87
2024-02-09T06:14:55.137Z,12.48
2024-02-09T06:15:59.328Z,12.32
2024-02-09T06:17:01.354Z,7.40
2024-02-09T06:18:06.941Z,10.10
2024-02-09T06:19:09.392Z,9.45
2024-02-09T06:20:12.246Z,6.63
2024-02-09T06:21:20.470Z,10.27
2024-02-09T06:22:22.612Z,13.27
2024-02-09T06:23:27.684Z,9.40
2024-02-09T06:24:29.665Z,9.07
2024-02-09T06:25:32.160Z,11.82
2024-02-09T06:26:35.836Z,8.88
2024-02-09T06:27:37.734Z,7.47
2024-02-09T06:28:40.021Z,6.38
2024-02-09T06:29:42.741Z,9.75
2024-02-09T06:30:49.092Z,11.13
2024-02-09T06:31:58.347Z,11.38
2024-02-09T06:33:00.590Z,11.82
2024-02-09T06:34:03.238Z,14.98
2024-02-09T06:35:06.177Z,12.32
2024-02-09T06:36:09.015Z,11.82
2024-02-09T06:37:11.168Z,10.85
2024-02-09T06:38:13.487Z,10.32
2024-02-09T06:39:16.630Z,12.18
2024-02-09T06:40:19.287Z,9.82
2024-02-09T06:41:21.260Z,10.73
2024-02-09T06:42:23.596Z,7.63
2024-02-09T06:43:25.575Z,13.73
2024-02-09T06:44:28.009Z,11.40
2024-02-09T06:45:30.131Z,11.00
2024-02-09T06:46:32.161Z,5.50
2024-02-09T06:47:34.960Z,9.10
2024-02-09T06:48:37.052Z,10.32
2024-02-09T06:49:39.239Z,9.53
2024-02-09T06:50:42.085Z,11.02
2024-02-09T06:51:46.025Z,10.93
2024-02-09T06:52:50.994Z,13.50
2024-02-09T06:53:56.443Z,10.95
2024-02-09T06:54:59.020Z,6.72
2024-02-09T06:56:01.499Z,11.40
2024-02-09T06:57:03.818Z,8.88
2024-02-09T06:58:06.251Z,7.82
2024-02-09T06:59:11.261Z,10.90
2024-02-09T07:00:17.882Z,7.30
2024-02-09T07:01:20.561Z,9.65
2024-02-09T07:02:22.915Z,5.72
2024-02-09T07:03:27.302Z,7.28
2024-02-09T07:04:29.489Z,7.68
2024-02-09T07:05:31.864Z,8.20
2024-02-09T07:06:34.402Z,8.73
2024-02-09T07:07:40.005Z,9.00
2024-02-09T07:08:42.246Z,7.95
2024-02-09T07:09:44.526Z,10.93
2024-02-09T07:10:47.041Z,8.27
2024-02-09T07:11:49.538Z,6.93
2024-02-09T07:12:56.005Z,9.38
2024-02-09T07:13:57.964Z,6.28
2024-02-09T07:14:59.929Z,5.55
2024-02-09T07:16:04.285Z,10.80
2024-02-09T07:17:06.438Z,10.13
2024-02-09T07:18:08.453Z,8.63
2024-02-09T07:19:11.061Z,5.15
2024-02-09T07:20:18.239Z,9.48
2024-02-09T07:21:21.709Z,6.13
2024-02-09T07:22:23.731Z,7.93
2024-02-09T07:23:29.416Z,6.18
2024-02-09T07:24:31.524Z,8.23
2024-02-09T07:25:34.283Z,7.22
2024-02-09T07:26:36.787Z,4.68
2024-02-09T07:27:38.857Z,7.30
2024-02-09T07:28:42.489Z,5.35
2024-02-09T07:29:47.719Z,8.20
2024-02-09T07:30:49.943Z,6.40
2024-02-09T07:31:52.034Z,6.05
2024-02-09T07:32:54.229Z,10.10
2024-02-09T07:33:57.042Z,11.25
2024-02-09T07:34:59.361Z,6.45
2024-02-09T07:36:02.262Z,9.38
2024-02-09T07:37:04.834Z,8.10
2024-02-09T07:38:06.903Z,6.47
2024-02-09T07:39:08.994Z,10.02
2024-02-09T07:40:11.707Z,8.13
2024-02-09T07:41:14.361Z,7.57
2024-02-09T07:42:18.790Z,6.85
2024-02-09T07:43:22.213Z,8.63
2024-02-09T07:44:24.232Z,5.70
2024-02-09T07:45:26.292Z,5.88
2024-02-09T07:46:28.592Z,6.00
2024-02-09T07:47:30.948Z,7.90
2024-02-09T07:48:33.372Z,6.35
2024-02-09T07:49:35.965Z,9.02
2024-02-09T07:50:42.076Z,8.63
2024-02-09T07:51:44.551Z,8.05
2024-02-09T07:52:46.894Z,8.73
2024-02-09T07:53:55.088Z,6.38
2024-02-09T07:54:58.121Z,8.75
2024-02-09T07:56:00.951Z,7.07
2024-02-09T07:57:03.237Z,9.38
2024-02-09T07:58:05.370Z,6.17
2024-02-09T07:59:07.591Z,6.20
2024-02-09T08:00:11.257Z,6.32
2024-02-09T08:01:14.363Z,5.35
2024-02-09T08:02:16.447Z,6.05
2024-02-09T08:03:21.354Z,10.00
2024-02-09T08:04:27.110Z,7.20
2024-02-09T08:05:29.270Z,5.70
2024-02-09T08:06:31.376Z,9.45
2024-02-09T08:07:33.666Z,5.85
2024-02-09T08:08:35.696Z,10.53
2024-02-09T08:09:38.054Z,11.70
2024-02-09T08:10:40.122Z,10.10
2024-02-09T08:11:43.422Z,6.90
2024-02-09T08:12:48.590Z,8.80
2024-02-09T08:13:54.200Z,5.78
2024-02-09T08:14:57.483Z,6.80
2024-02-09T08:15:59.564Z,6.45
2024-02-09T08:17:01.588Z,6.93
2024-02-09T08:18:03.580Z,7.20
2024-02-09T08:19:05.772Z,8.00
2024-02-09T08:20:08.605Z,6.50
2024-02-09T08:21:10.748Z,10.35
2024-02-09T08:22:12.694Z,6.35
2024-02-09T08:23:14.678Z,5.57
2024-02-09T08:24:19.954Z,6.95
2024-02-09T08:25:22.093Z,9.20
2024-02-09T08:26:25.303Z,6.70
2024-02-09T08:27:28.584Z,6.13
2024-02-09T08:28:30.509Z,5.67
2024-02-09T08:29:33.965Z,5.22
2024-02-09T08:30:36.728Z,6.60
2024-02-09T08:31:38.769Z,7.05
2024-02-09T08:32:43.266Z,5.63
2024-02-09T08:33:48.100Z,8.40
2024-02-09T08:34:52.087Z,5.72
2024-02-09T08:35:54.156Z,6.82
2024-02-09T08:36:56.532Z,5.57
2024-02-09T08:37:58.691Z,9.85
2024-02-09T08:39:00.729Z,6.17
2024-02-09T08:40:04.853Z,5.47
2024-02-09T08:41:08.050Z,6.10
2024-02-09T08:42:10.147Z,5.85
2024-02-09T08:43:12.270Z,11.43
2024-02-09T08:44:14.727Z,8.68
2024-02-09T08:45:17.018Z,7.85
2024-02-09T08:46:19.159Z,5.95
2024-02-09T08:47:23.977Z,7.30
2024-02-09T08:48:26.161Z,8.43
2024-02-09T08:49:28.490Z,7.27
2024-02-09T08:50:30.539Z,6.30
2024-02-09T08:51:32.588Z,6.50
2024-02-09T08:52:34.747Z,10.25
2024-02-09T08:53:36.863Z,7.47
2024-02-09T08:54:39.127Z,8.15
2024-02-09T08:55:41.162Z,8.27
2024-02-09T08:56:43.285Z,5.72
2024-02-09T08:57:45.733Z,6.05
2024-02-09T08:58:49.017Z,8.60
2024-02-09T08:59:51.229Z,5.70
2024-02-09T09:01:00.614Z,6.07
2024-02-09T09:02:07.135Z,6.50
2024-02-09T09:03:09.236Z,7.88
2024-02-09T09:04:13.081Z,5.88
2024-02-09T09:05:17.450Z,5.68
2024-02-09T09:06:19.842Z,6.00
2024-02-09T09:07:21.959Z,7.75
2024-02-09T09:08:26.221Z,9.20
2024-02-09T09:09:28.301Z,7.70
2024-02-09T09:10:30.338Z,6.90
2024-02-09T09:11:32.427Z,6.97
2024-02-09T09:12:36.982Z,7.47
2024-02-09T09:13:39.007Z,10.55
2024-02-09T09:14:41.789Z,8.13
2024-02-09T09:15:43.833Z,6.15
2024-02-09T09:16:46.107Z,9.63
2024-02-09T09:36:22.330Z,3.83
2024-02-09T09:37:24.302Z,5.85
2024-02-09T09:47:01.931Z,5.10
2024-02-09T09:48:08.456Z,6.07
2024-02-09T09:49:13.770Z,7.15
2024-02-09T09:50:17.592Z,6.25
2024-02-09T09:51:21.946Z,8.88
2024-02-09T09:52:32.640Z,4.80
2024-02-09T09:53:40.760Z,4.97
2024-02-09T09:54:44.197Z,4.30
2024-02-09T09:55:48.363Z,4.72
2024-02-09T09:56:51.473Z,4.97
2024-02-09T09:57:54.757Z,5.63
2024-02-09T09:58:58.911Z,4.53
2024-02-09T10:00:01.221Z,6.00
2024-02-09T10:01:12.480Z,5.10
2024-02-09T10:02:15.957Z,6.15
2024-02-09T10:03:20.339Z,5.93
2024-02-09T10:04:23.653Z,5.32
2024-02-09T10:05:30.912Z,6.32
2024-02-09T10:06:33.732Z,3.90
2024-02-09T10:07:41.222Z,4.10
2024-02-09T10:08:43.475Z,4.53
2024-02-09T10:09:45.977Z,4.18
2024-02-09T10:10:49.742Z,4.50
2024-02-09T10:11:53.373Z,5.55
2024-02-09T10:13:07.868Z,4.85
2024-02-09T10:14:15.769Z,5.43
2024-02-09T10:15:18.256Z,4.05
2024-02-09T10:16:23.570Z,4.65
2024-02-09T10:17:25.718Z,4.60
2024-02-09T10:18:28.097Z,4.60
2024-02-09T10:19:34.892Z,5.30
2024-02-09T10:20:41.559Z,5.25
2024-02-09T10:21:50.678Z,5.63
2024-02-09T10:22:59.061Z,5.03
2024-02-09T10:24:01.227Z,5.78
2024-02-09T10:25:04.318Z,4.28
2024-02-09T10:26:07.599Z,5.15
2024-02-09T10:27:11.820Z,4.28
2024-02-09T10:28:15.627Z,5.15
2024-02-09T10:29:22.646Z,4.90
2024-02-09T10:30:27.136Z,4.25
2024-02-09T10:31:30.800Z,4.70
2024-02-09T10:32:33.924Z,4.75
2024-02-09T10:33:38.801Z,4.85
2024-02-09T10:34:41.634Z,3.85
2024-02-09T10:35:45.422Z,3.88
2024-02-09T10:36:49.605Z,5.10
2024-02-09T10:37:52.485Z,4.60
2024-02-09T10:38:56.609Z,4.88
2024-02-09T10:40:01.954Z,3.73
2024-02-09T10:41:07.181Z,4.97
2024-02-09T10:42:10.553Z,6.38
2024-02-09T10:43:14.297Z,4.93
2024-02-09T10:44:17.532Z,4.40
2024-02-09T10:45:22.170Z,4.15
2024-02-09T10:46:28.330Z,7.82
2024-02-09T10:47:31.646Z,5.38
2024-02-09T10:48:39.899Z,5.57
2024-02-09T10:49:48.282Z,4.45
2024-02-09T10:50:56.424Z,3.60
2024-02-09T10:52:06.196Z,4.57
2024-02-09T10:53:13.682Z,4.00
2024-02-09T10:54:25.304Z,3.97
2024-02-09T10:55:42.027Z,5.30
2024-02-09T10:56:45.564Z,4.22
2024-02-09T10:57:55.572Z,3.95
2024-02-09T10:58:58.268Z,4.60
2024-02-09T11:00:02.758Z,4.38
2024-02-09T11:01:06.424Z,5.03
2024-02-09T11:02:12.842Z,4.43
2024-02-09T11:03:15.679Z,6.90
2024-02-09T11:04:18.418Z,5.35
2024-02-09T11:05:20.846Z,7.07
2024-02-09T11:06:26.143Z,4.07
2024-02-09T11:07:29.848Z,5.13
2024-02-09T11:08:36.329Z,5.65
2024-02-09T11:09:41.009Z,5.05
2024-02-09T11:10:43.830Z,4.53
2024-02-09T11:11:49.477Z,4.40
2024-02-09T11:12:59.282Z,5.60
2024-02-09T11:14:13.755Z,3.92
2024-02-09T11:15:17.081Z,4.00
2024-02-09T11:16:26.858Z,4.65
2024-02-09T11:17:29.650Z,4.50
2024-02-09T11:18:38.814Z,3.65
2024-02-09T11:19:43.499Z,4.00
2024-02-09T11:20:45.974Z,4.10
2024-02-09T11:21:59.107Z,4.72
2024-02-09T11:23:02.369Z,4.93
2024-02-09T11:24:05.078Z,3.97
2024-02-09T11:25:10.671Z,4.10
2024-02-09T11:26:15.585Z,4.32
2024-02-09T11:27:22.222Z,3.70
2024-02-09T11:28:24.580Z,5.03
2024-02-09T11:29:27.197Z,5.00
2024-02-09T11:30:32.477Z,4.80
2024-02-09T11:31:35.302Z,5.47
2024-02-09T11:32:38.893Z,5.60
2024-02-09T11:33:43.382Z,5.30
2024-02-09T11:34:50.471Z,5.10
2024-02-09T11:35:59.474Z,6.90
2024-02-09T11:37:03.304Z,5.20
2024-02-09T11:38:07.124Z,6.90
2024-02-09T11:39:11.290Z,8.45
2024-02-09T11:40:15.756Z,6.97
2024-02-09T11:41:18.077Z,5.78
2024-02-09T11:42:31.057Z,5.93
2024-02-09T11:43:37.469Z,6.03
2024-02-09T11:44:43.186Z,5.57
2024-02-09T11:45:48.682Z,5.90
2024-02-09T11:46:54.724Z,5.88
2024-02-09T11:47:58.708Z,4.30
2024-02-09T11:49:01.054Z,5.55
2024-02-09T11:50:03.132Z,5.28
2024-02-09T11:51:07.109Z,4.93
2024-02-09T11:52:12.023Z,5.43
2024-02-09T11:53:14.714Z,5.18
2024-02-09T11:54:17.768Z,4.05
2024-02-09T11:55:20.332Z,4.53
2024-02-09T11:56:22.536Z,4.17
2024-02-09T11:57:26.613Z,3.47
2024-02-09T11:58:33.326Z,4.03
2024-02-09T11:59:35.318Z,4.60
2024-02-09T12:00:40.339Z,5.20
2024-02-09T12:01:44.538Z,4.15
2024-02-09T12:02:48.299Z,4.35
2024-02-09T12:03:51.338Z,4.43
2024-02-09T12:04:53.925Z,5.63
2024-02-09T12:05:58.183Z,4.28
2024-02-09T12:07:00.946Z,3.57
2024-02-09T12:08:03.279Z,3.65
2024-02-09T12:09:05.728Z,5.03
2024-02-09T12:10:08.227Z,4.07
2024-02-09T12:11:10.460Z,3.70
2024-02-09T12:12:12.548Z,4.30
2024-02-09T12:13:14.858Z,3.42
2024-02-09T12:14:17.010Z,3.58
2024-02-09T12:15:22.099Z,5.90
2024-02-09T12:16:24.523Z,4.05
2024-02-09T12:17:28.551Z,3.53
2024-02-09T12:18:33.276Z,3.05
2024-02-09T12:19:37.010Z,4.10
2024-02-09T12:20:39.618Z,5.60
2024-02-09T12:21:42.405Z,3.75
2024-02-09T12:22:47.310Z,3.25
2024-02-09T12:24:06.282Z,3.80
2024-02-09T12:25:12.953Z,3.28
2024-02-09T12:26:20.585Z,6.03
2024-02-09T12:27:23.259Z,3.90
2024-02-09T12:28:26.100Z,2.50
2024-02-09T12:29:29.428Z,3.53
2024-02-09T12:30:33.381Z,2.85
2024-02-09T12:31:37.865Z,3.00
2024-02-09T12:32:41.982Z,4.03
2024-02-09T12:33:45.923Z,3.15
2024-02-09T12:34:51.335Z,4.75
2024-02-09T12:35:54.091Z,3.45
2024-02-09T12:37:01.079Z,3.30
2024-02-09T12:38:05.384Z,3.95
2024-02-09T12:39:09.225Z,3.17
2024-02-09T12:40:18.168Z,3.03
2024-02-09T12:41:20.485Z,3.53
2024-02-09T12:42:26.513Z,4.20
2024-02-09T12:43:28.491Z,4.13
2024-02-09T12:44:32.058Z,3.60
2024-02-09T12:45:34.176Z,3.30
2024-02-09T12:46:36.811Z,3.75
2024-02-09T12:47:40.032Z,3.03
2024-02-09T12:48:42.648Z,3.38
2024-02-09T12:49:45.507Z,2.60
2024-02-09T12:50:56.402Z,5.38
2024-02-09T12:52:01.071Z,2.58
2024-02-09T12:53:05.267Z,3.10
2024-02-09T12:54:09.109Z,4.32
2024-02-09T12:55:11.678Z,3.35
2024-02-09T12:56:13.514Z,4.40
2024-02-09T12:57:16.114Z,4.55
2024-02-09T12:58:20.960Z,4.13
2024-02-09T12:59:24.731Z,4.50
2024-02-09T13:00:26.869Z,4.20
2024-02-09T13:01:31.336Z,3.20
2024-02-09T13:02:34.074Z,3.63
2024-02-09T13:03:36.893Z,3.45
2024-02-09T13:04:40.882Z,3.75
2024-02-09T13:05:43.425Z,3.30
2024-02-09T13:06:45.574Z,3.58
2024-02-09T13:07:48.159Z,3.67
2024-02-09T13:08:51.226Z,3.60
2024-02-09T13:09:53.340Z,3.28
2024-02-09T13:10:55.464Z,4.60
2024-02-09T13:11:57.708Z,4.03
2024-02-09T13:13:07.275Z,3.10
2024-02-09T13:14:09.911Z,3.30
2024-02-09T13:15:17.380Z,3.28
2024-02-09T13:16:19.823Z,3.80
2024-02-09T13:17:22.885Z,4.07
2024-02-09T13:18:25.517Z,4.63
2024-02-09T13:19:27.734Z,5.15
2024-02-09T13:20:30.520Z,3.92
2024-02-09T13:21:33.209Z,3.20
2024-02-09T13:22:39.111Z,2.95
2024-02-09T13:23:42.243Z,3.03
2024-02-09T13:24:44.270Z,2.70
2024-02-09T13:25:46.293Z,3.00
2024-02-09T13:26:51.907Z,3.22
2024-02-09T13:28:00.730Z,2.92
2024-02-09T13:29:04.640Z,2.78
2024-02-09T13:30:09.953Z,3.08
2024-02-09T13:31:12.736Z,4.13
2024-02-09T13:32:17.947Z,2.87
2024-02-09T13:33:20.415Z,4.30
2024-02-09T13:34:23.427Z,3.03
2024-02-09T13:35:25.654Z,3.63
2024-02-09T13:36:28.667Z,3.63
2024-02-09T13:37:35.318Z,3.08
2024-02-09T13:38:37.749Z,4.50
2024-02-09T13:39:40.514Z,4.05
2024-02-09T13:40:43.887Z,2.92
2024-02-09T13:41:46.798Z,2.70
2024-02-09T13:42:51.401Z,3.13
2024-02-09T13:43:55.427Z,5.10
2024-02-09T13:45:01.173Z,2.80
2024-02-09T13:46:07.134Z,3.22
2024-02-09T13:47:10.271Z,5.50
2024-02-09T13:48:12.761Z,2.90
2024-02-09T13:49:15.020Z,3.97
2024-02-09T13:50:17.310Z,3.88
2024-02-09T13:51:20.709Z,4.20
2024-02-09T13:52:22.747Z,2.88
2024-02-09T13:53:24.833Z,2.80
2024-02-09T13:54:33.317Z,3.03
2024-02-09T13:55:36.971Z,3.97
2024-02-09T13:56:41.421Z,3.83
2024-02-09T13:57:49.776Z,4.25
2024-02-09T13:58:52.984Z,3.10
2024-02-09T13:59:55.397Z,4.45
2024-02-09T14:00:59.089Z,3.08
2024-02-09T14:02:01.941Z,4.10
2024-02-09T14:03:04.257Z,5.95
2024-02-09T14:04:08.455Z,2.97
2024-02-09T14:05:11.002Z,2.63
2024-02-09T14:06:13.839Z,2.92
2024-02-09T14:07:16.500Z,2.75
2024-02-09T14:08:21.422Z,2.95
2024-02-09T14:09:23.524Z,2.95
2024-02-09T14:10:25.621Z,4.28
2024-02-09T14:11:29.040Z,3.85
2024-02-09T14:12:31.716Z,2.88
2024-02-09T14:13:33.812Z,2.95
2024-02-09T14:14:36.215Z,2.53
2024-02-09T14:15:38.247Z,4.55
2024-02-09T14:16:40.605Z,2.47
2024-02-09T14:17:42.887Z,3.00
2024-02-09T14:18:47.173Z,3.97
2024-02-09T14:19:49.149Z,3.95
2024-02-09T14:20:51.757Z,3.88
2024-02-09T14:21:53.718Z,3.60
2024-02-09T14:22:56.090Z,3.13
2024-02-09T14:23:58.634Z,3.47
2024-02-09T14:25:01.738Z,3.20
2024-02-09T14:26:04.404Z,2.97
2024-02-09T14:27:07.052Z,5.50
2024-02-09T14:28:10.281Z,5.68
2024-02-09T14:29:14.548Z,4.30
2024-02-09T14:30:17.825Z,4.97
2024-02-09T14:31:19.675Z,3.33
2024-02-09T14:32:23.404Z,3.15
2024-02-09T14:33:26.999Z,3.28
2024-02-09T14:34:29.487Z,2.80
2024-02-09T14:35:31.817Z,3.30
2024-02-09T14:36:34.002Z,6.65
2024-02-09T14:37:36.155Z,3.10
2024-02-09T14:38:38.529Z,4.55
2024-02-09T14:39:43.202Z,3.63
2024-02-09T14:40:45.275Z,3.00
2024-02-09T14:41:47.590Z,3.15
2024-02-09T14:42:49.617Z,3.22
2024-02-09T14:43:52.012Z,4.25
2024-02-09T14:44:54.375Z,5.80